Terminal Aerodrome Forecast
Issued by NWS

Home | Current Version | Previous Version | Graphics & Text | Print | Product List | Glossary On
Versions: 1 2 3 4 5 6 7 8 9 10 11 12
000
FTUS43 KMPX 150524
TAFRWF
TAF
KRWF 150524Z 1506/1606 27008KT P6SM BKN100
     FM151200 30011KT P6SM BKN200
     FM151500 33014G20KT P6SM VCSH SCT008 BKN015
     FM152100 34016G24KT 6SM -SN BKN010
     FM160300 33017G23KT P6SM BKN050=

USA.gov is the U.S. government's official web portal to all federal, state and local government web resources and services.